Terminal Aerodrome Forecast
Issued by NWS Wilmington, NC

Current Version | Previous Version | Text Only | Print | Product List | Glossary On
Versions: 1 2 3 4 5 6 7 8 9 10 11 12 13 14 15 16 17 18
482
FTUS42 KILM 240520
TAFFLO
TAF
KFLO 240520Z 2406/2506 21013KT P6SM FEW250
     FM241400 24013KT P6SM VCTS BKN035CB
     FM241500 24013KT P6SM BKN035 PROB30 2415/2420 4SM TSRA OVC015CB
     FM242000 25011KT P6SM SHRA VCTS BKN035CB
     FM250100 25007KT P6SM SHRA VCTS BKN060CB=

USA.gov is the U.S. government's official web portal to all federal, state and local government web resources and services.